createdAt,value
2016-09-03T00:00:27.088Z,63.83
2016-09-03T00:01:27.074Z,64.02
2016-09-03T00:02:27.058Z,63.64
2016-09-03T00:03:27.033Z,63.86
2016-09-03T00:04:27.014Z,63.73
2016-09-03T00:05:26.993Z,63.73
2016-09-03T00:06:26.975Z,64.15
2016-09-03T00:07:26.955Z,63.83
2016-09-03T00:08:26.934Z,63.92
2016-09-03T00:09:26.916Z,64.4
2016-09-03T00:10:26.900Z,64.22
2016-09-03T00:11:26.877Z,64.4
2016-09-03T00:12:26.858Z,64.4
2016-09-03T00:13:26.840Z,64.31
2016-09-03T00:14:26.819Z,63.92
2016-09-03T00:15:26.801Z,63.83
2016-09-03T00:16:26.781Z,63.83
2016-09-03T00:17:26.760Z,63.92
2016-09-03T00:18:26.744Z,63.83
2016-09-03T00:19:26.720Z,64.12
2016-09-03T00:20:26.707Z,63.73
2016-09-03T00:21:26.682Z,63.73
2016-09-03T00:22:26.662Z,63.83
2016-09-03T00:23:26.643Z,63.92
2016-09-03T00:24:26.624Z,63.92
2016-09-03T00:25:26.603Z,63.64
2016-09-03T00:26:26.592Z,63.83
2016-09-03T00:27:26.565Z,64.22
2016-09-03T00:28:26.545Z,63.92
2016-09-03T00:29:26.528Z,63.92
2016-09-03T00:30:26.513Z,63.64
2016-09-03T00:31:26.488Z,63.25
2016-09-03T00:32:26.468Z,63.54
2016-09-03T00:33:26.447Z,63.45
2016-09-03T00:34:26.429Z,63.35
2016-09-03T00:35:26.410Z,63.45
2016-09-03T00:36:26.388Z,62.68
2016-09-03T00:37:26.372Z,63.06
2016-09-03T00:38:26.349Z,62.48
2016-09-03T00:39:26.330Z,62.58
2016-09-03T00:40:26.312Z,62.77
2016-09-03T00:41:26.292Z,62.68
2016-09-03T00:42:26.272Z,62.68
2016-09-03T00:43:26.253Z,62.48
2016-09-03T00:44:26.234Z,62.19
2016-09-03T00:45:26.212Z,62.19
2016-09-03T00:46:26.193Z,62
2016-09-03T00:47:26.173Z,62.19
2016-09-03T00:48:26.156Z,61.91
2016-09-03T00:49:26.135Z,62
2016-09-03T00:50:26.114Z,61.91
2016-09-03T00:51:26.096Z,61.91
2016-09-03T00:52:26.086Z,61.91
2016-09-03T00:53:26.069Z,62.1
2016-09-03T00:54:26.036Z,62.1
2016-09-03T00:55:26.022Z,62
2016-09-03T00:56:25.996Z,61.91
2016-09-03T00:57:25.985Z,62.19
2016-09-03T00:58:25.957Z,62.19
2016-09-03T00:59:25.939Z,62
2016-09-03T01:00:25.918Z,62.48
2016-09-03T01:01:25.896Z,62.48
2016-09-03T01:02:25.886Z,62.38
2016-09-03T01:03:25.858Z,62.48
2016-09-03T01:04:25.838Z,62.58
2016-09-03T01:05:25.819Z,62.48
2016-09-03T01:06:25.800Z,62.87
2016-09-03T01:07:25.791Z,62.58
2016-09-03T01:08:25.761Z,62.87
2016-09-03T01:09:25.740Z,62.58
2016-09-03T01:10:25.722Z,62.48
2016-09-03T01:11:25.702Z,62.48
2016-09-03T01:12:25.681Z,63.06
2016-09-03T01:13:25.666Z,62.77
2016-09-03T01:14:25.643Z,62.96
2016-09-03T01:15:25.621Z,62.87
2016-09-03T01:16:25.603Z,63.06
2016-09-03T01:17:25.584Z,62.96
2016-09-03T01:18:25.563Z,62.68
2016-09-03T01:19:25.544Z,62.68
2016-09-03T01:20:25.524Z,62.68
2016-09-03T01:21:25.503Z,62.87
2016-09-03T01:22:25.484Z,62.58
2016-09-03T01:23:25.463Z,62.87
2016-09-03T01:24:25.446Z,62.96
2016-09-03T01:25:25.424Z,62.87
2016-09-03T01:26:25.403Z,62.58
2016-09-03T01:27:25.387Z,62.87
2016-09-03T01:28:25.364Z,62.77
2016-09-03T01:29:25.344Z,62.96
2016-09-03T01:30:25.333Z,63.35
2016-09-03T01:31:25.306Z,63.54
2016-09-03T01:32:25.284Z,63.25
2016-09-03T01:33:25.265Z,63.25
2016-09-03T01:34:25.247Z,63.25
2016-09-03T01:35:25.227Z,63.64
2016-09-03T01:36:25.206Z,63.54
2016-09-03T01:37:25.186Z,63.64
2016-09-03T01:38:25.167Z,63.83
2016-09-03T01:39:25.148Z,63.54
2016-09-03T01:40:25.126Z,63.73
2016-09-03T01:41:25.115Z,64.02
2016-09-03T01:42:25.088Z,64.02
2016-09-03T01:43:25.065Z,63.83
2016-09-03T01:44:25.047Z,63.73
2016-09-03T01:45:25.028Z,63.92
2016-09-03T01:46:25.007Z,64.37
2016-09-03T01:47:24.987Z,64.28
2016-09-03T01:48:24.966Z,64.31
2016-09-03T01:49:24.948Z,64.12
2016-09-03T01:50:24.928Z,64.56
2016-09-03T01:51:24.905Z,64.76
2016-09-03T01:52:24.887Z,64.37
2016-09-03T01:53:24.873Z,64.28
2016-09-03T01:54:24.845Z,64.37
2016-09-03T01:55:24.826Z,64.18
2016-09-03T01:56:24.813Z,64.18
2016-09-03T01:57:24.786Z,64.28
2016-09-03T01:58:24.766Z,64.18
2016-09-03T01:59:24.744Z,64.47
2016-09-03T02:00:24.726Z,64.47
2016-09-03T02:01:24.707Z,64.76
2016-09-03T02:02:24.683Z,65.05
2016-09-03T02:03:24.664Z,64.85
2016-09-03T02:04:24.644Z,65.14
2016-09-03T02:05:24.623Z,65.05
2016-09-03T02:06:24.604Z,65.05
2016-09-03T02:07:24.585Z,64.95
2016-09-03T02:08:24.565Z,65.05
2016-09-03T02:09:24.544Z,65.05
2016-09-03T02:10:24.523Z,64.95
2016-09-03T02:11:24.503Z,64.85
2016-09-03T02:12:24.483Z,65.14
2016-09-03T02:13:24.461Z,65.05
2016-09-03T02:14:24.444Z,65.23
2016-09-03T02:15:24.421Z,65.05
2016-09-03T02:16:24.400Z,65.43
2016-09-03T02:17:24.382Z,65.05
2016-09-03T02:18:24.362Z,65.33
2016-09-03T02:19:24.342Z,65.4
2016-09-03T02:20:24.327Z,65.59
2016-09-03T02:21:24.300Z,65.59
2016-09-03T02:22:24.280Z,65.59
2016-09-03T02:23:24.261Z,65.4
2016-09-03T02:24:24.238Z,65.49
2016-09-03T02:25:24.218Z,65.59
2016-09-03T02:26:24.199Z,65.49
2016-09-03T02:27:24.177Z,65.4
2016-09-03T02:28:24.158Z,65.69
2016-09-03T02:29:24.137Z,65.4
2016-09-03T02:30:24.116Z,65.69
2016-09-03T02:31:24.096Z,65.59
2016-09-03T02:32:24.074Z,65.69
2016-09-03T02:33:24.054Z,65.49
2016-09-03T02:34:24.036Z,65.49
2016-09-03T02:35:24.014Z,65.49
2016-09-03T02:36:23.992Z,65.11
2016-09-03T02:37:23.974Z,64.53
2016-09-03T02:38:23.952Z,65.2
2016-09-03T02:39:23.933Z,65.11
2016-09-03T02:40:23.912Z,64.92
2016-09-03T02:41:23.890Z,65.11
2016-09-03T02:42:23.870Z,65.11
2016-09-03T02:43:23.851Z,65.11
2016-09-03T02:44:23.829Z,64.92
2016-09-03T02:45:23.810Z,64.82
2016-09-03T02:46:23.788Z,65.01
2016-09-03T02:47:23.767Z,65.01
2016-09-03T02:48:23.754Z,64.92
2016-09-03T02:49:23.728Z,64.89
2016-09-03T02:50:23.707Z,64.92
2016-09-03T02:51:23.686Z,65.11
2016-09-03T02:52:23.664Z,64.92
2016-09-03T02:53:23.644Z,64.79
2016-09-03T02:54:23.624Z,64.89
2016-09-03T02:55:23.603Z,64.69
2016-09-03T02:56:23.581Z,64.98
2016-09-03T02:57:23.561Z,64.92
2016-09-03T02:58:23.539Z,65.27
2016-09-03T02:59:23.520Z,64.89
2016-09-03T03:00:23.499Z,64.89
2016-09-03T03:01:23.477Z,65.08
2016-09-03T03:02:23.458Z,64.98
2016-09-03T03:03:23.437Z,64.98
2016-09-03T03:04:23.416Z,64.98
2016-09-03T03:05:23.395Z,65.17
2016-09-03T03:06:23.373Z,65.27
2016-09-03T03:07:23.353Z,64.89
2016-09-03T03:08:23.333Z,64.89
2016-09-03T03:09:23.311Z,65.08
2016-09-03T03:10:23.292Z,64.98
2016-09-03T03:11:23.269Z,64.79
2016-09-03T03:12:23.250Z,64.89
2016-09-03T03:13:23.230Z,64.89
2016-09-03T03:14:23.208Z,64.69
2016-09-03T03:15:23.187Z,64.98
2016-09-03T03:16:23.166Z,64.89
2016-09-03T03:17:23.152Z,64.89
2016-09-03T03:18:23.123Z,64.98
2016-09-03T03:19:23.106Z,65.17
2016-09-03T03:20:23.083Z,65.46
2016-09-03T03:21:23.062Z,64.79
2016-09-03T03:22:23.040Z,64.98
2016-09-03T03:23:23.025Z,64.98
2016-09-03T03:24:23.000Z,64.79
2016-09-03T03:25:22.980Z,64.31
2016-09-03T03:26:22.957Z,64.98
2016-09-03T03:27:22.937Z,65.08
2016-09-03T03:28:22.916Z,64.98
2016-09-03T03:29:22.896Z,65.08
2016-09-03T03:30:22.872Z,64.98
2016-09-03T03:31:22.859Z,64.98
2016-09-03T03:32:22.832Z,65.27
2016-09-03T03:33:22.809Z,64.98
2016-09-03T03:34:22.791Z,64.89
2016-09-03T03:35:23.462Z,65.17
2016-09-03T03:36:22.749Z,65.36
2016-09-03T03:37:22.728Z,65.23
2016-09-03T03:38:22.706Z,65.52
2016-09-03T03:39:22.686Z,65.08
2016-09-03T03:40:22.664Z,65.33
2016-09-03T03:41:22.641Z,65.27
2016-09-03T03:42:22.621Z,65.56
2016-09-03T03:43:22.604Z,65.33
2016-09-03T03:44:22.579Z,65.62
2016-09-03T03:45:22.559Z,65.62
2016-09-03T03:46:22.538Z,66
2016-09-03T03:47:22.515Z,65.72
2016-09-03T03:48:22.495Z,65.81
2016-09-03T03:49:22.475Z,66.1
2016-09-03T03:50:22.458Z,66.19
2016-09-03T03:51:22.431Z,66.29
2016-09-03T03:52:22.416Z,66.77
2016-09-03T03:53:22.390Z,66.96
2016-09-03T03:54:22.370Z,66.77
2016-09-03T03:55:22.345Z,67.35
2016-09-03T03:56:22.327Z,67.16
2016-09-03T03:57:22.312Z,66.96
2016-09-03T03:58:22.283Z,67.35
2016-09-03T03:59:22.262Z,67.25
2016-09-03T04:00:22.242Z,66.96
2016-09-03T04:01:22.221Z,67.63
2016-09-03T04:02:22.199Z,67.16
2016-09-03T04:03:22.176Z,67.35
2016-09-03T04:04:22.157Z,67.06
2016-09-03T04:05:22.136Z,67.16
2016-09-03T04:06:22.112Z,67.25
2016-09-03T04:07:22.093Z,67.25
2016-09-03T04:08:22.079Z,67.16
2016-09-03T04:09:22.049Z,67.16
2016-09-03T04:10:22.029Z,67.16
2016-09-03T04:11:22.007Z,67.16
2016-09-03T04:12:21.988Z,67.25
2016-09-03T04:13:21.966Z,67.25
2016-09-03T04:14:21.943Z,67.16
2016-09-03T04:15:21.923Z,67.25
2016-09-03T04:16:21.903Z,67.25
2016-09-03T04:17:21.880Z,67.35
2016-09-03T04:18:21.860Z,67.06
2016-09-03T04:19:21.839Z,66.96
2016-09-03T04:20:21.820Z,67.16
2016-09-03T04:21:21.797Z,66.67
2016-09-03T04:22:21.776Z,66.96
2016-09-03T04:23:21.755Z,66.67
2016-09-03T04:24:21.733Z,66.39
2016-09-03T04:25:21.712Z,66.39
2016-09-03T04:26:21.692Z,66.1
2016-09-03T04:27:21.672Z,65.91
2016-09-03T04:28:21.653Z,65.91
2016-09-03T04:29:21.626Z,65.72
2016-09-03T04:30:21.611Z,65.81
2016-09-03T04:31:21.585Z,65.05
2016-09-03T04:32:21.562Z,65.62
2016-09-03T04:33:21.555Z,65.62
2016-09-03T04:34:21.536Z,65.05
2016-09-03T04:35:21.499Z,64.95
2016-09-03T04:36:21.480Z,64.66
2016-09-03T04:37:21.461Z,64.37
2016-09-03T04:38:21.449Z,64.28
2016-09-03T04:39:21.418Z,64.47
2016-09-03T04:40:21.394Z,64.22
2016-09-03T04:41:21.375Z,64.4
2016-09-03T04:42:21.353Z,63.73
2016-09-03T04:43:21.331Z,63.89
2016-09-03T04:44:21.312Z,64.31
2016-09-03T04:45:21.290Z,63.32
2016-09-03T04:46:21.268Z,64.09
2016-09-03T04:47:21.248Z,63.7
2016-09-03T04:48:21.228Z,64.02
2016-09-03T04:49:21.214Z,63.25
2016-09-03T04:50:21.185Z,63.54
2016-09-03T04:51:21.163Z,63.45
2016-09-03T04:52:21.144Z,63.06
2016-09-03T04:53:21.122Z,63.45
2016-09-03T04:54:21.100Z,62.39
2016-09-03T04:55:21.081Z,62.58
2016-09-03T04:56:21.060Z,62.77
2016-09-03T04:57:21.042Z,62.39
2016-09-03T04:58:21.019Z,62.19
2016-09-03T04:59:20.999Z,62.19
2016-09-03T05:00:20.977Z,61.81
2016-09-03T05:01:20.969Z,61.62
2016-09-03T05:02:20.935Z,62.1
2016-09-03T05:03:20.915Z,62.01
2016-09-03T05:04:20.894Z,61.33
2016-09-03T05:05:20.871Z,61.43
2016-09-03T05:06:20.852Z,61.43
2016-09-03T05:07:20.834Z,61.14
2016-09-03T05:08:20.810Z,61.14
2016-09-03T05:09:20.792Z,61.36
2016-09-03T05:10:20.771Z,61.27
2016-09-03T05:11:20.750Z,61.36
2016-09-03T05:12:20.729Z,61.24
2016-09-03T05:13:20.710Z,61.36
2016-09-03T05:14:20.688Z,61.36
2016-09-03T05:15:21.360Z,61.27
2016-09-03T05:16:20.647Z,61.65
2016-09-03T05:17:20.627Z,61.65
2016-09-03T05:18:20.609Z,61.55
2016-09-03T05:19:20.587Z,61.55
2016-09-03T05:20:20.567Z,61.27
2016-09-03T05:21:20.547Z,61.27
2016-09-03T05:22:20.526Z,60.98
2016-09-03T05:23:20.505Z,60.78
2016-09-03T05:24:20.485Z,61.08
2016-09-03T05:25:20.465Z,61.08
2016-09-03T05:26:20.593Z,60.98
2016-09-03T05:27:20.426Z,61.08
2016-09-03T05:28:20.407Z,60.98
2016-09-03T05:29:20.384Z,61.17
2016-09-03T05:30:20.365Z,60.98
2016-09-03T05:31:20.344Z,61.08
2016-09-03T05:32:20.324Z,61.08
2016-09-03T05:33:20.310Z,61.08
2016-09-03T05:34:20.284Z,61.08
2016-09-03T05:35:20.265Z,60.88
2016-09-03T05:36:20.244Z,60.69
2016-09-03T05:37:20.223Z,60.88
2016-09-03T05:38:20.205Z,60.88
2016-09-03T05:39:20.184Z,60.88
2016-09-03T05:40:20.168Z,60.88
2016-09-03T05:41:20.144Z,60.69
2016-09-03T05:42:20.124Z,61.17
2016-09-03T05:43:20.103Z,61.17
2016-09-03T05:44:20.098Z,60.78
2016-09-03T05:45:20.064Z,61.17
2016-09-03T05:46:20.044Z,61.46
2016-09-03T05:47:20.027Z,61.17
2016-09-03T05:48:20.002Z,61.46
2016-09-03T05:49:19.983Z,61.55
2016-09-03T05:50:19.963Z,61.46
2016-09-03T05:51:19.947Z,61.27
2016-09-03T05:52:19.924Z,61.46
2016-09-03T05:53:19.905Z,61.27
2016-09-03T05:54:19.898Z,61.36
2016-09-03T05:55:19.865Z,61.46
2016-09-03T05:56:19.845Z,61.27
2016-09-03T05:57:19.826Z,61.46
2016-09-03T05:58:19.806Z,61.36
2016-09-03T05:59:19.786Z,61.17
2016-09-03T06:00:19.767Z,61.36
2016-09-03T06:01:19.752Z,61.46
2016-09-03T06:02:19.728Z,61.36
2016-09-03T06:03:19.707Z,61.27
2016-09-03T06:04:19.686Z,61.27
2016-09-03T06:05:19.679Z,61.55
2016-09-03T06:06:19.646Z,61.46
2016-09-03T06:07:19.626Z,61.46
2016-09-03T06:08:19.608Z,61.36
2016-09-03T06:09:19.589Z,61.65
2016-09-03T06:10:19.569Z,61.65
2016-09-03T06:11:19.549Z,61.55
2016-09-03T06:12:19.530Z,61.4
2016-09-03T06:13:19.509Z,60.69
2016-09-03T06:14:19.491Z,60.91
2016-09-03T06:15:19.471Z,61.11
2016-09-03T06:16:19.452Z,60.82
2016-09-03T06:17:19.432Z,61.11
2016-09-03T06:18:19.413Z,61.01
2016-09-03T06:19:19.406Z,61.2
2016-09-03T06:20:19.372Z,61.01
2016-09-03T06:21:19.356Z,61.11
2016-09-03T06:22:19.336Z,61.2
2016-09-03T06:23:19.315Z,60.53
2016-09-03T06:24:19.298Z,60.91
2016-09-03T06:25:19.277Z,60.82
2016-09-03T06:26:19.257Z,60.72
2016-09-03T06:27:19.240Z,60.43
2016-09-03T06:28:19.220Z,60.53
2016-09-03T06:29:19.199Z,60.72
2016-09-03T06:30:19.183Z,60.53
2016-09-03T06:31:19.171Z,60.53
2016-09-03T06:32:19.142Z,60.63
2016-09-03T06:33:19.125Z,60.82
2016-09-03T06:34:19.107Z,60.82
2016-09-03T06:35:19.087Z,60.37
2016-09-03T06:36:19.069Z,60.37
2016-09-03T06:37:19.050Z,60.27
2016-09-03T06:38:19.032Z,60.27
2016-09-03T06:39:19.011Z,60.37
2016-09-03T06:40:18.993Z,60.17
2016-09-03T06:41:18.975Z,60.17
2016-09-03T06:42:18.966Z,60.27
2016-09-03T06:43:18.936Z,60.56
2016-09-03T06:44:18.920Z,59.69
2016-09-03T06:45:18.902Z,59.89
2016-09-03T06:46:18.883Z,59.69
2016-09-03T06:47:18.865Z,59.31
2016-09-03T06:48:18.847Z,59.44
2016-09-03T06:49:18.827Z,59.24
2016-09-03T06:50:18.810Z,58.95
2016-09-03T06:51:18.798Z,58.95
2016-09-03T06:52:18.772Z,59.05
2016-09-03T06:53:18.756Z,59.15
2016-09-03T06:54:18.737Z,58.95
2016-09-03T06:55:18.719Z,59.05
2016-09-03T06:56:18.703Z,58.95
2016-09-03T06:57:18.684Z,58.95
2016-09-03T06:58:18.666Z,58.18
2016-09-03T06:59:18.648Z,58.76
2016-09-03T07:00:18.629Z,58.37
2016-09-03T07:01:18.611Z,58.57
2016-09-03T07:02:18.593Z,58.18
2016-09-03T07:03:18.576Z,58.18
2016-09-03T07:04:18.560Z,58.22
2016-09-03T07:05:18.546Z,58.4
2016-09-03T07:06:18.523Z,57.73
2016-09-03T07:07:18.507Z,57.73
2016-09-03T07:08:18.494Z,57.06
2016-09-03T07:09:18.471Z,57.06
2016-09-03T07:10:18.454Z,56.48
2016-09-03T07:11:18.435Z,56.58
2016-09-03T07:12:18.418Z,55.81
2016-09-03T07:13:18.401Z,56
2016-09-03T07:14:18.383Z,55.9
2016-09-03T07:15:18.368Z,55.43
2016-09-03T07:16:18.350Z,56
2016-09-03T07:17:18.336Z,55.23
2016-09-03T07:18:18.317Z,55.04
2016-09-03T07:19:18.298Z,54.65
2016-09-03T07:20:18.283Z,54.56
2016-09-03T07:21:18.264Z,54.1
2016-09-03T07:22:18.248Z,54.3
2016-09-03T07:23:18.232Z,54.1
2016-09-03T07:24:18.225Z,53.72
2016-09-03T07:25:18.204Z,53.23
2016-09-03T07:26:18.197Z,53.33
2016-09-03T07:27:18.165Z,52.75
2016-09-03T07:28:18.149Z,52.47
2016-09-03T07:29:18.132Z,52.18
2016-09-03T07:30:18.117Z,51.7
2016-09-03T07:31:18.104Z,51.6
2016-09-03T07:32:18.083Z,51.6
2016-09-03T07:33:18.067Z,51.12
2016-09-03T07:34:18.049Z,51.12
2016-09-03T07:35:18.037Z,50.93
2016-09-03T07:36:18.019Z,51.02
2016-09-03T07:37:18.003Z,51.12
2016-09-03T07:38:17.985Z,50.83
2016-09-03T07:39:17.967Z,50.85
2016-09-03T07:40:17.953Z,51.24
2016-09-03T07:41:17.934Z,50.85
2016-09-03T07:42:17.919Z,50.47
2016-09-03T07:43:17.905Z,50.27
2016-09-03T07:44:17.893Z,50.37
2016-09-03T07:45:17.877Z,50.27
2016-09-03T07:46:17.856Z,50.66
2016-09-03T07:47:17.839Z,50.09
2016-09-03T07:48:17.821Z,49.99
2016-09-03T07:49:17.806Z,49.43
2016-09-03T07:50:17.788Z,49.34
2016-09-03T07:51:17.774Z,49.05
2016-09-03T07:52:17.760Z,49.34
2016-09-03T07:53:17.742Z,49.34
2016-09-03T07:54:17.728Z,49.05
2016-09-03T07:55:17.710Z,48.28
2016-09-03T07:56:17.694Z,48.18
2016-09-03T07:57:17.680Z,47.7
2016-09-03T07:58:17.662Z,47.8
2016-09-03T07:59:17.647Z,47.31
2016-09-03T08:00:17.632Z,47.6
2016-09-03T08:01:17.618Z,47.7
2016-09-03T08:02:17.602Z,47.03
2016-09-03T08:03:17.585Z,46.73
2016-09-03T08:04:17.570Z,46.45
2016-09-03T08:05:17.553Z,46.83
2016-09-03T08:06:17.544Z,46.37
2016-09-03T08:07:17.538Z,46.37
2016-09-03T08:08:17.512Z,46.06
2016-09-03T08:09:17.493Z,46.08
2016-09-03T08:10:17.485Z,46.18
2016-09-03T08:11:17.460Z,46.37
2016-09-03T08:12:17.451Z,45.99
2016-09-03T08:13:17.435Z,45.6
2016-09-03T08:14:17.414Z,45.6
2016-09-03T08:15:17.397Z,45.7
2016-09-03T08:16:17.383Z,45.89
2016-09-03T08:17:17.369Z,46.08
2016-09-03T08:18:17.352Z,46.18
2016-09-03T08:19:17.338Z,46.08
2016-09-03T08:20:17.333Z,45.99
2016-09-03T08:21:17.305Z,45.6
2016-09-03T08:22:17.292Z,45.6
2016-09-03T08:23:17.276Z,45.41
2016-09-03T08:24:17.262Z,45.7
2016-09-03T08:25:17.245Z,45.79
2016-09-03T08:26:17.258Z,45.79
2016-09-03T08:27:17.215Z,45.31
2016-09-03T08:28:17.199Z,45.31
2016-09-03T08:29:17.186Z,45.29
2016-09-03T08:30:17.168Z,45.21
2016-09-03T08:31:17.152Z,45.31
2016-09-03T08:32:17.149Z,45.79
2016-09-03T08:33:17.127Z,45.87
2016-09-03T08:34:17.106Z,45.58
2016-09-03T08:35:17.091Z,45.51
2016-09-03T08:36:17.073Z,45.6
2016-09-03T08:37:17.057Z,45.7
2016-09-03T08:38:17.045Z,45.79
2016-09-03T08:39:17.026Z,45.79
2016-09-03T08:40:17.017Z,46.37
2016-09-03T08:41:16.994Z,46.18
2016-09-03T08:42:16.978Z,46.47
2016-09-03T08:43:16.964Z,46.18
2016-09-03T08:44:16.947Z,45.99
2016-09-03T08:45:17.624Z,45.6
2016-09-03T08:46:16.916Z,45.62
2016-09-03T08:47:16.899Z,45.62
2016-09-03T08:48:16.885Z,45.62
2016-09-03T08:49:16.870Z,45.72
2016-09-03T08:50:16.853Z,45.62
2016-09-03T08:51:16.838Z,45.82
2016-09-03T08:52:16.826Z,45.34
2016-09-03T08:53:16.809Z,45.53
2016-09-03T08:54:16.799Z,45.36
2016-09-03T08:55:16.779Z,45.26
2016-09-03T08:56:16.763Z,44.97
2016-09-03T08:57:16.749Z,45.07
2016-09-03T08:58:16.731Z,44.87
2016-09-03T08:59:16.720Z,44.87
2016-09-03T09:00:16.706Z,45.36
2016-09-03T09:01:16.692Z,45.17
2016-09-03T09:02:16.675Z,45.07
2016-09-03T09:03:16.661Z,45.07
2016-09-03T09:04:16.649Z,45.18
2016-09-03T09:05:16.635Z,45.17
2016-09-03T09:06:16.620Z,44.51
2016-09-03T09:07:16.610Z,44.42
2016-09-03T09:08:16.594Z,44.42
2016-09-03T09:09:16.578Z,44.22
2016-09-03T09:10:16.562Z,44.7
2016-09-03T09:11:16.555Z,44.22
2016-09-03T09:12:16.536Z,44.22
2016-09-03T09:13:16.522Z,44.22
2016-09-03T09:14:16.508Z,44.51
2016-09-03T09:15:16.495Z,44.53
2016-09-03T09:16:16.481Z,44.15
2016-09-03T09:17:16.468Z,44.05
2016-09-03T09:18:16.452Z,43.85
2016-09-03T09:19:16.438Z,43.95
2016-09-03T09:20:16.425Z,44.24
2016-09-03T09:21:16.411Z,44.24
2016-09-03T09:22:16.399Z,44.24
2016-09-03T09:23:16.386Z,44.63
2016-09-03T09:24:16.372Z,44.63
2016-09-03T09:25:16.365Z,44.63
2016-09-03T09:26:16.342Z,44.63
2016-09-03T09:27:16.328Z,44.63
2016-09-03T09:28:16.314Z,44.73
2016-09-03T09:29:16.301Z,44.43
2016-09-03T09:30:16.289Z,45.11
2016-09-03T09:31:16.275Z,45.21
2016-09-03T09:32:16.262Z,45.31
2016-09-03T09:33:16.254Z,45.31
2016-09-03T09:34:16.232Z,45.21
2016-09-03T09:35:16.219Z,45.11
2016-09-03T09:36:16.204Z,44.75
2016-09-03T09:37:16.191Z,44.46
2016-09-03T09:38:16.178Z,44.75
2016-09-03T09:39:16.165Z,44.65
2016-09-03T09:40:16.151Z,44.36
2016-09-03T09:41:16.149Z,44.46
2016-09-03T09:42:16.122Z,44.65
2016-09-03T09:43:16.108Z,44.65
2016-09-03T09:44:16.099Z,44.94
2016-09-03T09:45:16.078Z,45.14
2016-09-03T09:46:16.068Z,45.42
2016-09-03T09:47:16.048Z,45.62
2016-09-03T09:48:16.039Z,45.69
2016-09-03T09:49:16.020Z,46.27
2016-09-03T09:50:16.006Z,46.47
2016-09-03T09:51:15.997Z,46.66
2016-09-03T09:52:15.979Z,47.63
2016-09-03T09:53:15.961Z,47.81
2016-09-03T09:54:15.945Z,47.81
2016-09-03T09:55:15.930Z,48.3
2016-09-03T09:56:15.914Z,48.3
2016-09-03T09:57:15.899Z,49.05
2016-09-03T09:58:15.884Z,48.76
2016-09-03T09:59:15.866Z,49.24
2016-09-03T10:00:15.862Z,49.34
2016-09-03T10:01:15.837Z,49.15
2016-09-03T10:02:15.820Z,49.44
2016-09-03T10:03:15.805Z,49.34
2016-09-03T10:04:15.788Z,49.44
2016-09-03T10:05:15.774Z,49.24
2016-09-03T10:06:15.758Z,49.82
2016-09-03T10:07:15.747Z,49.63
2016-09-03T10:08:15.726Z,50.4
2016-09-03T10:09:15.710Z,50.28
2016-09-03T10:10:15.693Z,50.28
2016-09-03T10:11:15.678Z,49.73
2016-09-03T10:12:15.662Z,49.44
2016-09-03T10:13:15.650Z,49.53
2016-09-03T10:14:15.632Z,49.34
2016-09-03T10:15:15.612Z,49.15
2016-09-03T10:16:15.599Z,48.95
2016-09-03T10:17:15.585Z,48.95
2016-09-03T10:18:15.569Z,48.37
2016-09-03T10:19:15.559Z,47.99
2016-09-03T10:20:15.538Z,47.31
2016-09-03T10:21:15.523Z,47.72
2016-09-03T10:22:15.507Z,47.22
2016-09-03T10:23:15.497Z,47.53
2016-09-03T10:24:15.477Z,46.54
2016-09-03T10:25:15.463Z,46.56
2016-09-03T10:26:15.446Z,46.17
2016-09-03T10:27:15.431Z,46.66
2016-09-03T10:28:15.419Z,45.79
2016-09-03T10:29:15.404Z,45.89
2016-09-03T10:30:15.389Z,45.4
2016-09-03T10:31:15.393Z,45.5
2016-09-03T10:32:15.360Z,45.04
2016-09-03T10:33:15.344Z,45.21
2016-09-03T10:34:15.329Z,45.01
2016-09-03T10:35:15.313Z,45.01
2016-09-03T10:36:15.300Z,45.42
2016-09-03T10:37:15.283Z,45.4
2016-09-03T10:38:15.268Z,45.52
2016-09-03T10:39:15.255Z,45.42
2016-09-03T10:40:15.241Z,45.42
2016-09-03T10:41:15.232Z,45.62
2016-09-03T10:42:15.212Z,45.23
2016-09-03T10:43:15.197Z,45.04
2016-09-03T10:44:15.182Z,45.33
2016-09-03T10:45:15.167Z,45.16
2016-09-03T10:46:15.152Z,45.23
2016-09-03T10:47:15.145Z,44.94
2016-09-03T10:48:15.123Z,44.77
2016-09-03T10:49:15.112Z,44.38
2016-09-03T10:50:15.099Z,43.9
2016-09-03T10:51:15.084Z,43.73
2016-09-03T10:52:15.071Z,43.54
2016-09-03T10:53:15.057Z,43.54
2016-09-03T10:54:15.045Z,43.24
2016-09-03T10:55:15.032Z,43.17
2016-09-03T10:56:15.018Z,42.68
2016-09-03T10:57:15.004Z,42.78
2016-09-03T10:58:14.994Z,42.68
2016-09-03T10:59:14.980Z,42.97
2016-09-03T11:00:14.967Z,42.88
2016-09-03T11:01:14.955Z,42.8
2016-09-03T11:02:14.949Z,43.29
2016-09-03T11:03:14.930Z,43
2016-09-03T11:04:14.918Z,42.9
2016-09-03T11:05:14.905Z,43.38
2016-09-03T11:06:14.893Z,43.77
2016-09-03T11:07:14.881Z,43.68
2016-09-03T11:08:14.867Z,43.58
2016-09-03T11:09:14.856Z,43.58
2016-09-03T11:10:14.842Z,44.26
2016-09-03T11:11:14.829Z,44.33
2016-09-03T11:12:14.818Z,45.3
2016-09-03T11:13:14.801Z,45.3
2016-09-03T11:14:14.790Z,45.2
2016-09-03T11:15:14.775Z,45.4
2016-09-03T11:16:14.762Z,45.01
2016-09-03T11:17:14.750Z,44.72
2016-09-03T11:18:14.736Z,44.84
2016-09-03T11:19:14.721Z,44.43
2016-09-03T11:20:14.710Z,44.35
2016-09-03T11:21:14.694Z,45.3
2016-09-03T11:22:14.682Z,45.88
2016-09-03T11:23:14.667Z,46.84
2016-09-03T11:24:14.650Z,46.53
2016-09-03T11:25:14.639Z,47.02
2016-09-03T11:26:14.624Z,47.6
2016-09-03T11:27:14.610Z,47.5
2016-09-03T11:28:14.596Z,47.69
2016-09-03T11:29:14.583Z,47.11
2016-09-03T11:30:14.570Z,47.14
2016-09-03T11:31:14.555Z,46.75
2016-09-03T11:32:14.538Z,46.75
2016-09-03T11:33:14.526Z,47.04
2016-09-03T11:34:14.512Z,47.14
2016-09-03T11:35:14.497Z,47.24
2016-09-03T11:36:14.483Z,47.43
2016-09-03T11:37:14.467Z,47.62
2016-09-03T11:38:14.455Z,46.94
2016-09-03T11:39:14.439Z,47.79
2016-09-03T11:40:14.423Z,47.5
2016-09-03T11:41:14.411Z,47.5
2016-09-03T11:42:14.401Z,47.79
2016-09-03T11:43:14.380Z,48.08
2016-09-03T11:44:14.368Z,47.89
2016-09-03T11:45:14.354Z,47.79
2016-09-03T11:46:14.338Z,47.41
2016-09-03T11:47:14.324Z,47.6
2016-09-03T11:48:14.307Z,47.91
2016-09-03T11:49:14.295Z,48.39
2016-09-03T11:50:14.279Z,48.95
2016-09-03T11:51:14.264Z,49.15
2016-09-03T11:52:14.250Z,49.54
2016-09-03T11:53:14.233Z,49.34
2016-09-03T11:54:14.226Z,48.86
2016-09-03T11:55:14.205Z,48.86
2016-09-03T11:56:14.198Z,49.15
2016-09-03T11:57:14.176Z,49.15
2016-09-03T11:58:14.161Z,49.05
2016-09-03T11:59:14.147Z,49.63
2016-09-03T12:00:14.132Z,49.73
2016-09-03T12:01:14.116Z,49.34
2016-09-03T12:02:14.105Z,49.44
2016-09-03T12:03:14.090Z,49.44
2016-09-03T12:04:14.077Z,48.66
2016-09-03T12:05:14.061Z,48.86
2016-09-03T12:06:14.047Z,48.39
2016-09-03T12:07:14.034Z,48.01
2016-09-03T12:08:14.017Z,47.64
2016-09-03T12:09:14.018Z,47.74
2016-09-03T12:10:13.992Z,47.84
2016-09-03T12:11:13.978Z,47.55
2016-09-03T12:12:13.964Z,48.32
2016-09-03T12:13:13.952Z,47.94
2016-09-03T12:14:13.939Z,48.22
2016-09-03T12:15:13.925Z,48.3
2016-09-03T12:16:13.911Z,49.17
2016-09-03T12:17:13.900Z,48.97
2016-09-03T12:18:13.899Z,48.69
2016-09-03T12:19:13.871Z,49.46
2016-09-03T12:20:13.874Z,48.97
2016-09-03T12:21:13.848Z,49.37
2016-09-03T12:22:13.836Z,49.17
2016-09-03T12:23:13.821Z,48.97
2016-09-03T12:24:13.805Z,49.65
2016-09-03T12:25:13.796Z,49.17
2016-09-03T12:26:13.782Z,49.27
2016-09-03T12:27:13.767Z,48.61
2016-09-03T12:28:13.754Z,48.42
2016-09-03T12:29:13.739Z,48.32
2016-09-03T12:30:13.728Z,47.57
2016-09-03T12:31:13.715Z,47.96
2016-09-03T12:32:13.702Z,47.57
2016-09-03T12:33:13.689Z,47.38
2016-09-03T12:34:13.674Z,47.77
2016-09-03T12:35:13.665Z,48.06
2016-09-03T12:36:13.649Z,47.94
2016-09-03T12:37:13.634Z,48.22
2016-09-03T12:38:13.621Z,48.61
2016-09-03T12:39:13.610Z,48.42
2016-09-03T12:40:13.597Z,48.52
2016-09-03T12:41:13.584Z,48.42
2016-09-03T12:42:13.569Z,48.22
2016-09-03T12:43:13.558Z,48.35
2016-09-03T12:44:13.545Z,47.96
2016-09-03T12:45:13.530Z,48.35
2016-09-03T12:46:13.518Z,48.03
2016-09-03T12:47:13.503Z,48.22
2016-09-03T12:48:13.491Z,48.52
2016-09-03T12:49:13.477Z,48.61
2016-09-03T12:50:13.463Z,48.52
2016-09-03T12:51:13.451Z,48.32
2016-09-03T12:52:13.448Z,47.96
2016-09-03T12:53:13.422Z,48.03
2016-09-03T12:54:13.412Z,48.06
2016-09-03T12:55:13.398Z,48.35